createdAt,value
2023-05-04T00:00:40.230Z,0.00
2023-05-04T00:01:40.256Z,0.00
2023-05-04T00:02:40.339Z,0.00
2023-05-04T00:03:43.160Z,0.00
2023-05-04T00:04:40.361Z,0.00
2023-05-04T00:05:42.996Z,0.00
2023-05-04T00:06:40.381Z,0.00
2023-05-04T00:07:40.410Z,0.00
2023-05-04T00:09:22.991Z,0.00
2023-05-04T00:10:23.011Z,0.00
2023-05-04T00:11:23.029Z,0.00
2023-05-04T00:12:23.054Z,0.00
2023-05-04T00:13:23.081Z,0.00
2023-05-04T00:14:23.122Z,0.00
2023-05-04T00:15:23.139Z,0.00
2023-05-04T00:16:23.277Z,0.00
2023-05-04T00:17:23.215Z,0.00
2023-05-04T00:18:23.206Z,0.00
2023-05-04T00:19:23.236Z,0.00
2023-05-04T00:20:23.257Z,0.00
2023-05-04T00:21:23.297Z,0.00
2023-05-04T00:22:23.308Z,0.00
2023-05-04T00:23:23.336Z,0.00
2023-05-04T00:24:23.357Z,0.00
2023-05-04T00:25:23.397Z,0.00
2023-05-04T00:26:23.417Z,0.00
2023-05-04T00:27:23.468Z,0.00
2023-05-04T00:28:23.512Z,0.00
2023-05-04T00:29:23.514Z,0.00
2023-05-04T00:30:23.528Z,0.00
2023-05-04T00:31:23.578Z,0.00
2023-05-04T00:32:23.609Z,0.00
2023-05-04T00:33:23.597Z,0.00
2023-05-04T00:34:23.648Z,0.00
2023-05-04T00:35:23.633Z,0.00
2023-05-04T00:36:23.657Z,0.00
2023-05-04T00:37:23.701Z,0.00
2023-05-04T00:38:36.446Z,0.00
2023-05-04T00:39:24.948Z,0.00
2023-05-04T00:40:23.757Z,0.00
2023-05-04T00:41:23.781Z,0.00
2023-05-04T00:42:23.816Z,0.00
2023-05-04T00:43:23.830Z,0.00
2023-05-04T00:44:24.112Z,0.00
2023-05-04T00:45:23.880Z,0.00
2023-05-04T00:46:23.940Z,0.00
2023-05-04T00:47:24.014Z,0.00
2023-05-04T00:48:23.957Z,0.00
2023-05-04T00:49:25.090Z,0.00
2023-05-04T00:50:24.009Z,0.00
2023-05-04T00:51:24.031Z,0.00
2023-05-04T00:52:24.062Z,0.00
2023-05-04T00:53:24.135Z,0.00
2023-05-04T00:54:24.203Z,0.00
2023-05-04T00:55:24.129Z,0.00
2023-05-04T00:56:24.174Z,0.00
2023-05-04T00:57:24.330Z,0.00
2023-05-04T00:58:24.233Z,0.00
2023-05-04T00:59:24.235Z,0.00
2023-05-04T01:00:24.271Z,0.00
2023-05-04T01:01:24.484Z,0.00
2023-05-04T01:02:24.344Z,0.00
2023-05-04T01:03:24.391Z,0.00
2023-05-04T01:04:24.360Z,0.00
2023-05-04T01:05:24.384Z,0.00
2023-05-04T01:06:24.420Z,0.00
2023-05-04T01:07:24.433Z,0.00
2023-05-04T01:08:24.458Z,0.00
2023-05-04T01:09:24.506Z,0.00
2023-05-04T01:10:24.510Z,0.00
2023-05-04T01:11:24.532Z,0.00
2023-05-04T01:12:24.560Z,0.00
2023-05-04T01:13:24.584Z,0.00
2023-05-04T01:14:24.609Z,0.00
2023-05-04T01:15:24.635Z,0.00
2023-05-04T01:16:24.675Z,0.00
2023-05-04T01:18:12.292Z,0.00
2023-05-04T01:19:12.269Z,0.00
2023-05-04T01:20:12.296Z,0.00
2023-05-04T01:21:12.318Z,0.00
2023-05-04T01:22:12.341Z,0.00
2023-05-04T01:23:12.377Z,0.00
2023-05-04T01:24:12.405Z,0.00
2023-05-04T01:25:12.481Z,0.00
2023-05-04T01:26:12.443Z,0.00
2023-05-04T01:27:12.471Z,0.00
2023-05-04T01:28:12.492Z,0.00
2023-05-04T01:29:12.519Z,0.00
2023-05-04T01:30:12.563Z,0.00
2023-05-04T01:31:12.597Z,0.00
2023-05-04T01:32:12.590Z,0.00
2023-05-04T01:33:12.621Z,0.00
2023-05-04T01:34:12.647Z,0.00
2023-05-04T01:35:12.670Z,0.00
2023-05-04T01:36:12.692Z,0.00
2023-05-04T01:37:12.716Z,0.00
2023-05-04T01:38:12.739Z,0.00
2023-05-04T01:39:12.770Z,0.00
2023-05-04T01:40:12.811Z,0.00
2023-05-04T01:41:12.847Z,0.00
2023-05-04T01:42:12.841Z,0.00
2023-05-04T01:43:12.875Z,0.00
2023-05-04T01:44:12.890Z,0.00
2023-05-04T01:45:12.919Z,0.00
2023-05-04T01:46:12.955Z,0.00
2023-05-04T01:47:12.977Z,0.00
2023-05-04T01:48:12.987Z,0.00
2023-05-04T01:49:13.017Z,0.00
2023-05-04T01:50:13.063Z,0.00
2023-05-04T01:51:13.062Z,0.00
2023-05-04T01:52:13.088Z,0.00
2023-05-04T01:53:13.111Z,0.00
2023-05-04T01:54:13.136Z,0.00
2023-05-04T01:55:13.165Z,0.00
2023-05-04T01:56:13.183Z,0.00
2023-05-04T01:57:13.238Z,0.00
2023-05-04T01:58:13.234Z,0.00
2023-05-04T01:59:13.270Z,0.00
2023-05-04T02:00:13.283Z,0.00
2023-05-04T02:01:13.358Z,0.00
2023-05-04T02:02:13.334Z,0.00
2023-05-04T02:03:13.412Z,0.00
2023-05-04T02:04:13.423Z,0.00
2023-05-04T02:05:13.421Z,0.00
2023-05-04T02:06:13.436Z,0.00
2023-05-04T02:07:13.465Z,0.00
2023-05-04T02:08:13.489Z,0.00
2023-05-04T02:09:13.508Z,0.00
2023-05-04T02:10:13.536Z,0.00
2023-05-04T02:11:13.561Z,0.00
2023-05-04T02:12:13.583Z,0.00
2023-05-04T02:13:13.693Z,0.00
2023-05-04T02:14:13.633Z,0.00
2023-05-04T02:15:13.659Z,0.00
2023-05-04T02:16:13.772Z,0.00
2023-05-04T02:17:13.713Z,0.00
2023-05-04T02:18:13.768Z,0.00
2023-05-04T02:19:13.766Z,0.00
2023-05-04T02:20:13.780Z,0.00
2023-05-04T02:21:13.806Z,0.00
2023-05-04T02:22:13.830Z,0.00
2023-05-04T02:23:13.869Z,0.00
2023-05-04T02:24:13.879Z,0.00
2023-05-04T02:25:13.911Z,0.00
2023-05-04T02:26:13.939Z,0.00
2023-05-04T02:27:13.955Z,0.00
2023-05-04T02:28:13.979Z,0.00
2023-05-04T02:29:14.168Z,0.00
2023-05-04T02:30:14.032Z,0.00
2023-05-04T02:31:14.099Z,0.00
2023-05-04T02:32:14.090Z,0.00
2023-05-04T02:33:14.126Z,0.00
2023-05-04T02:34:14.134Z,0.00
2023-05-04T02:35:14.159Z,0.00
2023-05-04T02:36:14.180Z,0.00
2023-05-04T02:37:14.208Z,0.00
2023-05-04T02:38:14.237Z,0.00
2023-05-04T02:39:14.254Z,0.00
2023-05-04T02:40:14.274Z,0.00
2023-05-04T02:41:14.306Z,0.00
2023-05-04T02:42:14.330Z,0.00
2023-05-04T02:43:14.359Z,0.00
2023-05-04T02:44:14.376Z,0.00
2023-05-04T02:45:14.471Z,0.00
2023-05-04T02:46:14.497Z,0.00
2023-05-04T02:47:14.459Z,0.00
2023-05-04T02:48:14.481Z,0.00
2023-05-04T02:49:14.502Z,0.00
2023-05-04T02:50:14.528Z,0.00
2023-05-04T02:51:14.557Z,0.00
2023-05-04T02:52:14.578Z,0.00
2023-05-04T02:53:14.610Z,0.00
2023-05-04T02:54:14.635Z,0.00
2023-05-04T02:55:14.653Z,0.00
2023-05-04T02:56:14.696Z,0.00
2023-05-04T02:57:14.702Z,0.00
2023-05-04T02:58:14.732Z,0.00
2023-05-04T02:59:14.756Z,0.00
2023-05-04T03:00:14.776Z,0.00
2023-05-04T03:01:15.015Z,0.00
2023-05-04T03:02:14.826Z,0.00
2023-05-04T03:03:14.852Z,0.00
2023-05-04T03:04:14.931Z,0.00
2023-05-04T03:05:14.927Z,0.00
2023-05-04T03:06:14.926Z,0.00
2023-05-04T03:07:14.953Z,0.00
2023-05-04T03:08:14.974Z,0.00
2023-05-04T03:09:15.014Z,0.00
2023-05-04T03:10:15.024Z,0.00
2023-05-04T03:11:15.052Z,0.00
2023-05-04T03:12:15.080Z,0.00
2023-05-04T03:13:15.177Z,0.00
2023-05-04T03:14:15.128Z,0.00
2023-05-04T03:15:15.150Z,0.00
2023-05-04T03:16:15.200Z,0.00
2023-05-04T03:17:15.217Z,0.00
2023-05-04T03:18:15.285Z,0.00
2023-05-04T03:19:15.247Z,0.00
2023-05-04T03:20:15.282Z,0.00
2023-05-04T03:21:15.297Z,0.00
2023-05-04T03:22:15.320Z,0.00
2023-05-04T03:23:15.350Z,4.00
2023-05-04T03:24:15.367Z,4.00
2023-05-04T03:25:15.396Z,4.00
2023-05-04T03:26:15.419Z,0.00
2023-05-04T03:27:15.444Z,4.00
2023-05-04T03:28:15.478Z,4.00
2023-05-04T03:29:15.498Z,4.00
2023-05-04T03:30:15.514Z,4.00
2023-05-04T03:31:15.557Z,4.00
2023-05-04T03:32:15.660Z,8.00
2023-05-04T03:33:15.616Z,4.00
2023-05-04T03:34:15.617Z,8.00
2023-05-04T03:35:19.088Z,8.00
2023-05-04T03:36:15.666Z,8.00
2023-05-04T03:37:15.696Z,12.00
2023-05-04T03:38:15.727Z,12.00
2023-05-04T03:39:15.739Z,16.00
2023-05-04T03:40:15.765Z,20.00
2023-05-04T03:41:15.787Z,24.00
2023-05-04T03:42:15.812Z,24.00
2023-05-04T03:43:15.840Z,32.00
2023-05-04T03:44:15.861Z,32.00
2023-05-04T03:45:15.886Z,36.00
2023-05-04T03:46:15.933Z,44.00
2023-05-04T03:47:15.940Z,52.00
2023-05-04T03:48:15.962Z,60.00
2023-05-04T03:49:16.008Z,68.00
2023-05-04T03:50:16.039Z,76.00
2023-05-04T03:51:16.034Z,88.00
2023-05-04T03:52:16.058Z,100.00
2023-05-04T03:53:16.084Z,108.00
2023-05-04T03:54:16.107Z,120.00
2023-05-04T03:55:16.133Z,132.00
2023-05-04T03:56:16.156Z,140.00
2023-05-04T03:57:16.187Z,148.00
2023-05-04T03:58:16.200Z,160.00
2023-05-04T03:59:16.230Z,172.00
2023-05-04T04:00:16.258Z,184.00
2023-05-04T04:01:16.286Z,196.00
2023-05-04T04:02:16.346Z,216.00
2023-05-04T04:03:16.592Z,228.00
2023-05-04T04:04:16.450Z,248.00
2023-05-04T04:05:16.428Z,272.00
2023-05-04T04:06:16.405Z,296.00
2023-05-04T04:07:16.426Z,324.00
2023-05-04T04:08:16.453Z,352.00
2023-05-04T04:09:16.476Z,384.00
2023-05-04T04:10:16.502Z,420.00
2023-05-04T04:11:16.528Z,460.00
2023-05-04T04:12:16.546Z,496.00
2023-05-04T04:13:16.680Z,544.00
2023-05-04T04:14:16.604Z,588.00
2023-05-04T04:15:16.631Z,636.00
2023-05-04T04:16:16.695Z,688.00
2023-05-04T04:17:16.672Z,740.00
2023-05-04T04:18:16.695Z,792.00
2023-05-04T04:19:16.721Z,852.00
2023-05-04T04:20:16.744Z,912.00
2023-05-04T04:21:16.793Z,972.00
2023-05-04T04:22:16.797Z,1032.00
2023-05-04T04:23:16.824Z,1092.00
2023-05-04T04:24:16.838Z,1156.00
2023-05-04T04:25:16.869Z,1220.00
2023-05-04T04:26:16.889Z,1284.00
2023-05-04T04:27:16.916Z,1348.00
2023-05-04T04:28:16.941Z,1412.00
2023-05-04T04:29:16.965Z,1488.00
2023-05-04T04:30:16.988Z,1560.00
2023-05-04T04:31:17.046Z,1624.00
2023-05-04T04:32:17.036Z,1676.00
2023-05-04T04:33:17.103Z,1728.00
2023-05-04T04:34:17.089Z,1776.00
2023-05-04T04:35:17.116Z,1824.00
2023-05-04T04:36:17.135Z,1860.00
2023-05-04T04:37:17.181Z,1904.00
2023-05-04T04:38:17.184Z,1936.00
2023-05-04T04:39:17.326Z,1980.00
2023-05-04T04:40:17.240Z,2024.00
2023-05-04T04:41:17.267Z,2068.00
2023-05-04T04:42:17.285Z,2128.00
2023-05-04T04:43:17.315Z,2212.00
2023-05-04T04:44:17.341Z,2284.00
2023-05-04T04:45:17.374Z,2360.00
2023-05-04T04:46:17.412Z,2460.00
2023-05-04T04:47:17.413Z,2500.00
2023-05-04T04:48:17.440Z,2568.00
2023-05-04T04:49:17.457Z,2536.00
2023-05-04T04:50:17.479Z,2552.00
2023-05-04T04:51:17.507Z,2620.00
2023-05-04T04:52:17.530Z,2728.00
2023-05-04T04:53:17.587Z,2908.00
2023-05-04T04:54:17.582Z,3272.00
2023-05-04T04:55:17.609Z,3372.00
2023-05-04T04:56:17.633Z,3220.00
2023-05-04T04:57:17.653Z,3184.00
2023-05-04T04:58:17.677Z,3292.00
2023-05-04T04:59:17.704Z,3440.00
2023-05-04T05:00:17.741Z,3564.00
2023-05-04T05:01:17.923Z,3604.00
2023-05-04T05:02:17.784Z,3608.00
2023-05-04T05:03:17.841Z,3640.00
2023-05-04T05:04:17.837Z,3672.00
2023-05-04T05:05:17.853Z,3720.00
2023-05-04T05:06:17.877Z,3816.00
2023-05-04T05:07:17.905Z,3920.00
2023-05-04T05:08:17.924Z,4048.00
2023-05-04T05:09:17.976Z,4196.00
2023-05-04T05:10:17.984Z,4364.00
2023-05-04T05:11:18.004Z,4564.00
2023-05-04T05:12:18.027Z,4668.00
2023-05-04T05:13:18.139Z,4812.00
2023-05-04T05:14:18.080Z,5244.00
2023-05-04T05:15:18.110Z,6488.00
2023-05-04T05:16:18.205Z,5712.00
2023-05-04T05:17:18.157Z,5232.00
2023-05-04T05:18:18.181Z,5304.00
2023-05-04T05:19:18.203Z,5204.00
2023-05-04T05:20:18.232Z,5188.00
2023-05-04T05:21:18.255Z,5352.00
2023-05-04T05:22:18.300Z,5520.00
2023-05-04T05:23:18.305Z,5612.00
2023-05-04T05:24:18.396Z,6048.00
2023-05-04T05:25:18.452Z,6240.00
2023-05-04T05:26:18.384Z,6016.00
2023-05-04T05:27:18.412Z,6188.00
2023-05-04T05:28:18.443Z,6320.00
2023-05-04T05:29:18.467Z,6448.00
2023-05-04T05:30:18.532Z,6876.00
2023-05-04T05:31:18.534Z,8008.00
2023-05-04T05:32:18.539Z,8872.00
2023-05-04T05:33:18.609Z,7628.00
2023-05-04T05:34:18.591Z,8064.00
2023-05-04T05:35:18.613Z,8500.00
2023-05-04T05:36:18.637Z,8260.00
2023-05-04T05:37:18.662Z,8420.00
2023-05-04T05:38:18.851Z,9196.00
2023-05-04T05:39:18.713Z,12384.00
2023-05-04T05:40:18.756Z,16352.00
2023-05-04T05:41:18.793Z,15328.00
2023-05-04T05:42:18.793Z,11108.00
2023-05-04T05:43:18.934Z,11148.00
2023-05-04T05:44:18.839Z,11812.00
2023-05-04T05:45:18.868Z,11812.00
2023-05-04T05:46:18.935Z,12544.00
2023-05-04T05:47:18.922Z,15236.00
2023-05-04T05:48:18.947Z,17632.00
2023-05-04T05:49:18.972Z,17056.00
2023-05-04T05:50:19.016Z,14820.00
2023-05-04T05:52:01.578Z,14008.00
2023-05-04T05:53:01.609Z,13852.00
2023-05-04T05:54:01.636Z,17408.00
2023-05-04T05:55:02.748Z,22272.00
2023-05-04T05:56:01.694Z,23392.00
2023-05-04T05:57:01.806Z,24416.00
2023-05-04T05:58:01.744Z,31328.00
2023-05-04T05:59:01.780Z,48416.00
2023-05-04T06:00:01.842Z,51264.00
2023-05-04T06:01:01.824Z,41984.00
2023-05-04T06:02:01.856Z,34432.00
2023-05-04T06:03:02.069Z,31968.00
2023-05-04T06:04:02.017Z,40192.00
2023-05-04T06:05:02.129Z,47008.00
2023-05-04T06:06:01.970Z,51328.00
2023-05-04T06:07:02.001Z,48672.00
2023-05-04T06:08:02.023Z,47968.00
2023-05-04T06:09:02.058Z,50720.00
2023-05-04T06:10:02.184Z,58688.00
2023-05-04T06:11:02.115Z,58560.00
2023-05-04T06:12:02.143Z,62688.00
2023-05-04T06:13:02.229Z,64128.00
2023-05-04T06:14:02.205Z,63776.00
2023-05-04T06:15:02.246Z,60160.00
2023-05-04T06:16:02.293Z,56320.00
2023-05-04T06:17:02.297Z,54560.00
2023-05-04T06:18:02.365Z,51072.00
2023-05-04T06:19:02.371Z,45568.00
2023-05-04T06:20:02.484Z,51904.00
2023-05-04T06:21:02.430Z,51552.00
2023-05-04T06:22:03.871Z,49696.00
2023-05-04T06:23:02.504Z,42336.00
2023-05-04T06:24:02.730Z,33056.00
2023-05-04T06:25:07.129Z,32288.00
2023-05-04T06:26:02.573Z,39072.00
2023-05-04T06:27:02.608Z,42144.00
2023-05-04T06:28:02.639Z,43840.00
2023-05-04T06:29:02.699Z,43264.00
2023-05-04T06:30:02.923Z,45088.00
2023-05-04T06:31:02.743Z,45568.00
2023-05-04T06:32:02.871Z,40000.00
2023-05-04T06:33:02.868Z,37728.00
2023-05-04T06:34:02.829Z,35456.00
2023-05-04T06:35:02.980Z,30784.00
2023-05-04T06:36:02.894Z,35424.00
2023-05-04T06:37:02.931Z,35104.00
2023-05-04T06:38:02.962Z,32416.00
2023-05-04T06:39:02.987Z,31264.00
2023-05-04T06:40:03.020Z,31968.00
2023-05-04T06:41:03.056Z,43840.00
2023-05-04T06:42:03.087Z,49472.00
2023-05-04T06:43:03.117Z,56832.00
2023-05-04T06:44:03.150Z,52704.00
2023-05-04T06:45:03.266Z,48032.00
2023-05-04T06:46:03.340Z,46592.00
2023-05-04T06:47:03.256Z,48096.00
2023-05-04T06:48:03.345Z,55744.00
2023-05-04T06:49:03.324Z,53024.00
2023-05-04T06:50:03.639Z,49888.00
2023-05-04T06:51:03.382Z,53248.00
2023-05-04T06:52:03.406Z,54976.00
2023-05-04T06:53:03.447Z,59424.00
2023-05-04T06:54:03.478Z,62656.00
2023-05-04T06:55:03.506Z,64832.00
2023-05-04T06:56:03.539Z,65664.00
2023-05-04T06:57:03.700Z,61856.00
2023-05-04T06:58:04.430Z,61696.00
2023-05-04T06:59:03.688Z,62272.00
2023-05-04T07:00:03.858Z,63264.00
2023-05-04T07:01:03.876Z,61856.00
2023-05-04T07:02:03.743Z,64128.00
2023-05-04T07:03:03.827Z,66144.00
2023-05-04T07:04:03.856Z,64896.00
2023-05-04T07:05:04.714Z,61216.00
2023-05-04T07:06:04.689Z,58848.00
2023-05-04T07:07:03.910Z,57408.00
2023-05-04T07:08:03.943Z,56416.00
2023-05-04T07:09:03.973Z,52032.00
2023-05-04T07:10:04.181Z,50560.00
2023-05-04T07:11:04.044Z,49504.00
2023-05-04T07:13:04.164Z,51712.00
2023-05-04T07:14:04.148Z,55840.00
2023-05-04T07:15:04.204Z,61120.00
2023-05-04T07:16:04.253Z,64960.00
2023-05-04T07:17:04.285Z,56256.00
2023-05-04T07:18:04.345Z,54368.00
2023-05-04T07:19:04.318Z,62112.00
2023-05-04T07:20:04.552Z,64032.00
2023-05-04T07:21:21.702Z,68192.00
2023-05-04T07:22:04.427Z,63616.00
2023-05-04T07:23:04.461Z,58528.00
2023-05-04T07:25:04.527Z,57760.00
2023-05-04T07:26:04.562Z,61024.00
2023-05-04T07:27:04.811Z,65568.00
2023-05-04T07:28:04.652Z,64992.00
2023-05-04T07:29:04.673Z,63872.00
2023-05-04T07:30:07.425Z,61056.00
2023-05-04T07:31:04.755Z,59968.00
2023-05-04T07:33:04.869Z,55360.00
2023-05-04T07:34:04.848Z,51744.00
2023-05-04T07:35:04.891Z,51840.00
2023-05-04T07:36:04.913Z,50336.00
2023-05-04T07:37:04.952Z,51200.00
2023-05-04T07:38:05.008Z,56352.00
2023-05-04T07:39:05.020Z,57632.00
2023-05-04T07:40:05.365Z,58688.00
2023-05-04T07:41:05.094Z,61056.00
2023-05-04T07:42:05.128Z,63808.00
2023-05-04T07:43:05.172Z,64320.00
2023-05-04T07:44:05.200Z,67008.00
2023-05-04T07:45:05.233Z,70080.00
2023-05-04T07:46:05.312Z,68544.00
2023-05-04T07:47:06.730Z,65408.00
2023-05-04T07:48:05.365Z,59872.00
2023-05-04T07:49:05.397Z,62304.00
2023-05-04T07:50:05.678Z,62400.00
2023-05-04T07:51:05.446Z,61536.00
2023-05-04T07:52:05.713Z,65440.00
2023-05-04T07:53:05.520Z,64864.00
2023-05-04T07:54:05.555Z,65728.00
2023-05-04T07:55:05.589Z,62432.00
2023-05-04T07:56:05.628Z,59648.00
2023-05-04T07:57:05.675Z,58848.00
2023-05-04T07:58:05.704Z,66976.00
2023-05-04T07:59:05.762Z,70592.00
2023-05-04T08:00:05.989Z,69888.00
2023-05-04T08:01:05.813Z,68032.00
2023-05-04T08:02:05.880Z,69696.00
2023-05-04T08:03:06.003Z,69856.00
2023-05-04T08:04:05.919Z,72768.00
2023-05-04T08:05:09.005Z,69920.00
2023-05-04T08:06:06.145Z,69440.00
2023-05-04T08:07:58.607Z,64160.00
2023-05-04T08:08:58.647Z,60000.00
2023-05-04T08:09:58.678Z,60640.00
2023-05-04T08:11:11.970Z,58560.00
2023-05-04T08:11:58.754Z,57408.00
2023-05-04T08:12:59.007Z,60128.00
2023-05-04T08:13:58.827Z,60896.00
2023-05-04T08:14:58.866Z,62944.00
2023-05-04T08:15:58.902Z,62304.00
2023-05-04T08:16:58.945Z,62016.00
2023-05-04T08:17:59.023Z,64608.00
2023-05-04T08:18:59.018Z,66112.00
2023-05-04T08:19:59.057Z,63328.00
2023-05-04T08:20:59.118Z,64160.00
2023-05-04T08:21:59.142Z,62208.00
2023-05-04T08:22:59.170Z,64320.00
2023-05-04T08:23:59.206Z,60672.00
2023-05-04T08:24:59.247Z,56576.00
2023-05-04T08:25:59.286Z,58272.00
2023-05-04T08:27:08.159Z,57472.00
2023-05-04T08:27:59.358Z,61536.00
2023-05-04T08:28:59.401Z,59456.00
2023-05-04T08:29:59.444Z,54976.00
2023-05-04T08:30:59.476Z,46976.00
2023-05-04T08:31:59.546Z,49824.00
2023-05-04T08:32:59.583Z,49536.00
2023-05-04T08:33:59.591Z,48576.00
2023-05-04T08:34:59.636Z,58368.00
2023-05-04T08:35:59.669Z,65312.00
2023-05-04T08:36:59.902Z,62336.00
2023-05-04T08:37:59.744Z,62464.00
2023-05-04T08:38:59.785Z,61312.00
2023-05-04T08:39:59.818Z,56544.00
2023-05-04T08:40:59.857Z,57472.00
2023-05-04T08:41:59.895Z,59200.00
2023-05-04T08:42:59.937Z,56992.00
2023-05-04T08:43:59.973Z,57760.00
2023-05-04T08:45:00.020Z,53184.00
2023-05-04T08:46:00.116Z,55552.00
2023-05-04T08:47:00.088Z,55776.00
2023-05-04T08:48:00.229Z,56800.00
2023-05-04T08:49:00.169Z,48736.00
2023-05-04T08:50:00.242Z,35840.00
2023-05-04T08:51:00.317Z,29056.00
2023-05-04T08:52:00.281Z,25600.00
2023-05-04T08:53:00.520Z,23776.00
2023-05-04T08:54:00.356Z,23712.00
2023-05-04T08:55:00.400Z,22784.00
2023-05-04T08:56:00.430Z,21792.00
2023-05-04T08:57:00.473Z,22720.00
2023-05-04T08:58:00.509Z,22080.00
2023-05-04T08:59:00.553Z,22176.00
2023-05-04T09:00:00.585Z,23648.00
2023-05-04T09:01:00.789Z,23680.00
2023-05-04T09:02:00.729Z,25984.00
2023-05-04T09:03:00.771Z,26368.00
2023-05-04T09:04:00.753Z,24384.00
2023-05-04T09:05:00.776Z,24128.00
2023-05-04T09:06:00.807Z,26176.00
2023-05-04T09:07:00.857Z,24800.00
2023-05-04T09:08:00.878Z,24224.00
2023-05-04T09:09:01.046Z,22624.00
2023-05-04T09:10:00.957Z,21376.00
2023-05-04T09:11:00.997Z,21760.00
2023-05-04T09:12:01.043Z,22432.00
2023-05-04T09:13:01.155Z,22624.00
2023-05-04T09:14:01.120Z,22144.00
2023-05-04T09:15:01.217Z,21632.00
2023-05-04T09:16:01.198Z,21696.00
2023-05-04T09:17:01.280Z,21280.00
2023-05-04T09:18:01.287Z,20096.00
2023-05-04T09:19:01.296Z,19040.00
2023-05-04T09:20:01.424Z,17888.00
2023-05-04T09:21:01.370Z,17504.00
2023-05-04T09:22:01.417Z,17984.00
2023-05-04T09:23:01.449Z,18208.00
2023-05-04T09:24:01.483Z,17280.00
2023-05-04T09:25:01.663Z,17024.00
2023-05-04T09:26:01.565Z,16512.00
2023-05-04T09:27:01.597Z,17280.00
2023-05-04T09:28:01.633Z,17344.00
2023-05-04T09:29:01.671Z,17696.00
2023-05-04T09:30:01.713Z,17216.00
2023-05-04T09:31:01.758Z,16576.00
2023-05-04T09:32:01.783Z,16928.00
2023-05-04T09:33:01.863Z,15592.00
2023-05-04T09:34:01.861Z,15824.00
2023-05-04T09:35:01.935Z,16288.00
2023-05-04T09:36:01.928Z,16352.00
2023-05-04T09:37:02.167Z,16224.00
2023-05-04T09:38:02.016Z,16288.00
2023-05-04T09:39:02.055Z,16320.00
2023-05-04T09:40:02.086Z,16320.00
2023-05-04T09:41:02.138Z,16128.00
2023-05-04T09:42:02.154Z,16256.00
2023-05-04T09:43:02.206Z,16320.00
2023-05-04T09:44:02.224Z,16608.00
2023-05-04T09:45:02.381Z,18016.00
2023-05-04T09:46:02.332Z,17760.00
2023-05-04T09:47:02.333Z,19200.00
2023-05-04T09:48:02.472Z,20224.00
2023-05-04T09:49:02.400Z,19904.00
2023-05-04T09:50:02.629Z,21120.00
2023-05-04T09:51:02.485Z,21760.00
2023-05-04T09:52:02.528Z,24704.00
2023-05-04T09:53:02.549Z,22688.00
2023-05-04T09:54:02.590Z,19488.00
2023-05-04T09:55:02.821Z,17408.00
2023-05-04T09:56:03.917Z,16544.00
2023-05-04T09:57:02.714Z,16128.00
2023-05-04T09:58:02.727Z,16768.00
2023-05-04T09:59:02.787Z,16608.00
2023-05-04T10:00:02.789Z,15284.00
2023-05-04T10:01:02.838Z,14496.00
2023-05-04T10:02:14.548Z,14388.00
2023-05-04T10:03:02.918Z,15060.00
2023-05-04T10:04:02.928Z,14968.00
2023-05-04T10:05:03.225Z,14584.00
2023-05-04T10:06:03.015Z,13720.00
2023-05-04T10:07:03.039Z,12676.00
2023-05-04T10:08:03.073Z,12904.00
2023-05-04T10:09:03.107Z,12696.00
2023-05-04T10:10:03.140Z,12224.00
2023-05-04T10:11:03.175Z,11876.00
2023-05-04T10:12:03.209Z,11160.00
2023-05-04T10:13:03.399Z,10716.00
2023-05-04T10:14:03.278Z,11220.00
2023-05-04T10:15:03.523Z,11768.00
2023-05-04T10:16:03.396Z,11072.00
2023-05-04T10:17:03.383Z,11132.00
2023-05-04T10:18:03.448Z,11200.00
2023-05-04T10:19:03.452Z,10852.00
2023-05-04T10:20:03.483Z,10600.00
2023-05-04T10:21:03.544Z,10604.00
2023-05-04T10:22:03.553Z,10596.00
2023-05-04T10:23:03.595Z,10280.00
2023-05-04T10:24:03.621Z,10192.00
2023-05-04T10:25:03.843Z,9996.00
2023-05-04T10:26:03.689Z,9812.00
2023-05-04T10:27:03.739Z,9592.00
2023-05-04T10:28:03.807Z,9432.00
2023-05-04T10:29:03.901Z,9208.00
2023-05-04T10:30:03.825Z,9160.00
2023-05-04T10:31:03.863Z,8940.00
2023-05-04T10:32:03.973Z,8960.00
2023-05-04T10:33:03.987Z,9040.00
2023-05-04T10:34:03.966Z,8880.00
2023-05-04T10:35:04.239Z,8476.00
2023-05-04T10:36:04.075Z,8520.00
2023-05-04T10:37:04.087Z,8468.00
2023-05-04T10:38:04.104Z,8420.00
2023-05-04T10:39:04.141Z,8536.00
2023-05-04T10:40:05.487Z,8464.00
2023-05-04T10:41:04.208Z,8344.00
2023-05-04T10:42:51.806Z,8356.00
2023-05-04T10:43:51.846Z,8072.00
2023-05-04T10:44:51.896Z,8232.00
2023-05-04T10:45:51.925Z,8356.00
2023-05-04T10:46:51.942Z,8476.00
2023-05-04T10:47:51.984Z,8584.00
2023-05-04T10:48:52.015Z,8580.00
2023-05-04T10:49:52.045Z,8872.00
2023-05-04T10:50:52.084Z,9000.00
2023-05-04T10:51:52.126Z,9068.00
2023-05-04T10:52:52.145Z,8928.00
2023-05-04T10:53:52.204Z,8636.00
2023-05-04T10:54:52.215Z,8632.00
2023-05-04T10:55:52.253Z,8376.00
2023-05-04T10:56:52.285Z,8940.00
2023-05-04T10:57:52.321Z,9576.00
2023-05-04T10:58:52.351Z,10132.00
2023-05-04T10:59:52.390Z,10236.00
2023-05-04T11:00:52.489Z,10804.00
2023-05-04T11:01:52.456Z,11524.00
2023-05-04T11:02:52.616Z,11624.00
2023-05-04T11:03:52.597Z,10944.00
2023-05-04T11:04:52.577Z,9256.00
2023-05-04T11:05:52.590Z,7412.00
2023-05-04T11:06:52.624Z,6560.00
2023-05-04T11:07:52.659Z,6360.00
2023-05-04T11:08:52.700Z,6224.00
2023-05-04T11:09:52.728Z,6216.00
2023-05-04T11:10:52.764Z,6144.00
2023-05-04T11:11:52.797Z,6008.00
2023-05-04T11:14:00.446Z,6156.00
2023-05-04T11:15:00.485Z,6020.00
2023-05-04T11:16:00.655Z,5956.00
2023-05-04T11:17:00.555Z,5860.00
2023-05-04T11:18:00.665Z,5772.00
2023-05-04T11:19:00.616Z,5944.00
2023-05-04T11:20:01.117Z,6104.00
2023-05-04T11:22:00.731Z,6092.00
2023-05-04T11:23:00.958Z,6112.00
2023-05-04T11:25:18.421Z,6036.00
2023-05-04T11:26:18.452Z,6052.00
2023-05-04T11:28:01.036Z,5948.00
2023-05-04T11:29:01.089Z,5828.00
2023-05-04T11:30:01.281Z,5692.00
2023-05-04T11:31:01.153Z,5468.00
2023-05-04T11:32:01.419Z,5180.00
2023-05-04T11:33:01.256Z,5016.00
2023-05-04T11:34:01.238Z,4876.00
2023-05-04T11:35:01.280Z,4776.00
2023-05-04T11:36:01.297Z,4836.00
2023-05-04T11:37:01.336Z,4752.00
2023-05-04T11:38:01.365Z,4656.00
2023-05-04T11:39:01.402Z,4720.00
2023-05-04T11:42:34.136Z,4776.00
2023-05-04T11:43:34.170Z,4764.00
2023-05-04T11:44:34.198Z,4744.00
2023-05-04T11:45:34.250Z,4760.00
2023-05-04T11:46:34.321Z,4752.00
2023-05-04T11:47:34.395Z,4568.00
2023-05-04T11:49:34.384Z,4624.00
2023-05-04T11:50:34.623Z,4632.00
2023-05-04T11:51:34.952Z,4596.00
2023-05-04T11:52:34.477Z,4564.00
2023-05-04T11:53:34.519Z,4424.00
2023-05-04T11:54:34.763Z,4468.00
2023-05-04T11:55:34.573Z,4580.00
2023-05-04T11:56:34.602Z,4720.00
2023-05-04T11:57:34.635Z,4784.00
2023-05-04T11:58:34.672Z,4860.00
2023-05-04T12:08:35.945Z,5192.00
2023-05-04T12:10:37.483Z,5272.00
2023-05-04T12:42:45.177Z,5208.00
2023-05-04T12:43:45.204Z,5184.00
2023-05-04T12:44:45.235Z,5164.00
2023-05-04T12:45:45.300Z,5124.00
2023-05-04T12:46:45.303Z,5120.00
2023-05-04T12:47:45.348Z,5128.00
2023-05-04T12:48:45.364Z,5080.00
2023-05-04T12:49:45.398Z,5040.00
2023-05-04T12:50:45.453Z,5008.00
2023-05-04T12:51:45.465Z,5012.00
2023-05-04T12:52:45.510Z,5020.00
2023-05-04T12:53:45.532Z,5056.00
2023-05-04T12:54:45.557Z,5012.00
2023-05-04T12:55:45.592Z,4972.00
2023-05-04T12:56:45.620Z,4952.00
2023-05-04T12:57:45.659Z,4736.00
2023-05-04T12:58:45.898Z,4560.00
2023-05-04T12:59:45.718Z,4500.00
2023-05-04T13:00:46.116Z,4404.00
2023-05-04T13:01:46.822Z,4400.00
2023-05-04T13:06:48.287Z,4512.00
2023-05-04T13:07:46.180Z,4532.00
2023-05-04T13:08:46.215Z,4568.00
2023-05-04T13:33:07.729Z,4276.00
2023-05-04T13:34:01.981Z,4272.00
2023-05-04T13:35:02.007Z,4224.00
2023-05-04T13:36:02.156Z,4216.00
2023-05-04T13:37:02.069Z,4212.00
2023-05-04T13:38:02.100Z,4168.00
2023-05-04T13:39:02.140Z,4172.00
2023-05-04T13:40:05.391Z,4148.00
2023-05-04T13:41:02.193Z,4132.00
2023-05-04T13:42:02.221Z,4124.00